Airfield :
LOGIN :

Register | Disclaimer

   EN    FR    IT 

 










Legend :    VFR   Marginal VFR   IFR   Intensive IFR   Very Intensive IFR
Visi :
Ceiling :
>= 8 km
>= 3000ft
5 to 8 km
1000 to 3000 ft
1500m to 5 km
500 to 1000 ft
800 to 1500m
200 to 500 ft
< 800m
< 200 ft
Symbols :   Thunderstorms  Fog  Heavy snow  Heavy precipitations  Wind > 20 kt
SIGMETs :     Misc.  Thunderstorms  Icing  Turbulence  Mountain Waves  Volcanic Ashes







- Airport Elevation : 1416 ft
- IATA code : ZRH


LSZH - Zurich

CURRENT METAR :
  • 170820Z 04005KT 8000 OVC018 03/M01 Q1024 NOSIG

EXPIRED METARs :
  • 170750Z 03006KT 8000 OVC018 03/M01 Q1024 NOSIG
  • 170720Z 01005KT 8000 OVC018 03/M01 Q1024 NOSIG
  • 170650Z 01006KT 7000 OVC018 03/M00 Q1024 NOSIG
  • 170620Z 36006KT 7000 OVC018 03/M00 Q1024 NOSIG
  • 170550Z 01005KT 7000 OVC018 03/M00 Q1024 NOSIG

TAF TAF LSZH
Valid from the 17 at 09:00 until the 18 at 15:00 UTC


170825Z 1709/1815 03006KT 8000 OVC018 TX06/1715Z TN02/1802Z TX05/1815Z
BECMG 1709/1711 05010KT
PROB30 1714/1720 CAVOK
BECMG 1716/1719 34004KT
BECMG 1721/1724 BKN012
PROB40 1800/1808 BKN008
BECMG 1808/1811 05008KT BKN016
PROB30 1813/1815 CAVOK
ATIS : +41 43 816 2295 (DEP) +41 43 816 2294 (ARR)
No reported NOTAMs for that airfield.



MET'MAP, your aeronautical weather chart ! - Copyright ORBIFLY December 2007 - Disclaimer

ORBIFLY MET'MAP TEAM :

Programming & Development : Alexandra Zaïnal
Concept & Development : Baudouin d'Aumeries
Co-Development & Prog : Marc-Olivier Méhu
Technical & hardware support : Manuel Goepfert

Contact : metmap@orbifly.com




SOURCES & CREDITS :

   NOAA